Time;durP1;ratioP1;P1;durP2;ratioP2;P2;SDS_P1;SDS_P2;PMS_P1;PMS_P2;Temp;Humidity;BMP_temperature;BMP_pressure;BME280_temperature;BME280_humidity;BME280_pressure;Samples;Min_cycle;Max_cycle;Signal;HPM_P1;HPM_P2
2022/02/27 00:00:44;;;;;;;19.58;7.82;;;;;;;;;;4884874;29;20045;-93
2022/02/27 00:03:10;;;;;;;18.88;8.27;;;;;;;;;;4884250;29;20036;-87
2022/02/27 00:05:35;;;;;;;20.38;8.65;;;;;;;;;;4881276;29;20040;-90
2022/02/27 00:08:00;;;;;;;26.70;8.77;;;;;;;;;;4883460;29;20044;-84
2022/02/27 00:10:26;;;;;;;23.98;8.55;;;;;;;;;;4879818;29;20043;-91
2022/02/27 00:12:51;;;;;;;17.17;7.97;;;;;;;;;;4879854;29;20035;-83
2022/02/27 00:15:17;;;;;;;20.58;8.32;;;;;;;;;;4893031;29;20028;-86
2022/02/27 00:17:43;;;;;;;21.75;8.60;;;;;;;;;;4884846;29;20107;-92
2022/02/27 00:20:10;;;;;;;16.90;7.50;;;;;;;;;;4880262;29;20045;-84
2022/02/27 00:22:35;;;;;;;22.13;7.93;;;;;;;;;;4886834;29;20033;-93
2022/02/27 00:25:01;;;;;;;18.15;7.88;;;;;;;;;;4877962;29;20044;-93
2022/02/27 00:27:26;;;;;;;16.92;8.40;;;;;;;;;;4880622;29;20050;-93
2022/02/27 00:29:52;;;;;;;22.02;8.95;;;;;;;;;;4889937;29;20040;-84
2022/02/27 00:32:17;;;;;;;17.65;7.70;;;;;;;;;;4881019;29;20061;-85
2022/02/27 00:34:43;;;;;;;19.80;7.60;;;;;;;;;;4879623;29;20053;-85
2022/02/27 00:37:08;;;;;;;20.00;8.05;;;;;;;;;;4879722;29;20040;-92
2022/02/27 00:39:34;;;;;;;25.55;8.48;;;;;;;;;;4881827;29;20036;-92
2022/02/27 00:41:59;;;;;;;22.08;8.18;;;;;;;;;;4875050;29;20077;-91
2022/02/27 00:44:25;;;;;;;21.98;8.52;;;;;;;;;;4881160;29;20497;-86
2022/02/27 00:46:50;;;;;;;15.98;7.60;;;;;;;;;;4877281;29;20032;-91
2022/02/27 00:49:16;;;;;;;15.55;7.00;;;;;;;;;;4886141;29;20494;-86
2022/02/27 00:51:41;;;;;;;17.27;8.00;;;;;;;;;;4881969;29;20044;-89
2022/02/27 00:54:07;;;;;;;18.40;7.38;;;;;;;;;;4880040;29;20085;-92
2022/02/27 00:56:33;;;;;;;16.08;7.15;;;;;;;;;;4877416;29;20036;-91
2022/02/27 00:58:59;;;;;;;21.83;8.35;;;;;;;;;;4880870;29;20033;-90
2022/02/27 01:01:25;;;;;;;20.75;8.15;;;;;;;;;;4886128;29;20035;-92
2022/02/27 01:03:50;;;;;;;17.63;6.88;;;;;;;;;;4882330;29;20453;-85
2022/02/27 01:06:19;;;;;;;21.13;7.82;;;;;;;;;;4881265;29;20124;-93
2022/02/27 01:08:44;;;;;;;13.90;7.45;;;;;;;;;;4879376;29;20107;-83
2022/02/27 01:11:11;;;;;;;22.58;8.25;;;;;;;;;;4879639;29;20059;-85
2022/02/27 01:13:38;;;;;;;15.15;7.30;;;;;;;;;;4883790;29;20024;-92
2022/02/27 01:16:05;;;;;;;19.77;8.23;;;;;;;;;;4876277;29;20033;-92
2022/02/27 01:18:31;;;;;;;19.63;7.75;;;;;;;;;;4881052;29;20108;-85
2022/02/27 01:20:56;;;;;;;19.00;7.60;;;;;;;;;;4876769;29;20070;-86
2022/02/27 01:23:22;;;;;;;20.40;8.02;;;;;;;;;;4885981;29;20402;-89
2022/02/27 01:25:47;;;;;;;16.90;6.97;;;;;;;;;;4879281;29;20059;-83
2022/02/27 01:28:13;;;;;;;17.80;7.57;;;;;;;;;;4879128;29;20084;-90
2022/02/27 01:30:38;;;;;;;17.95;7.65;;;;;;;;;;4879335;29;20036;-84
2022/02/27 01:33:03;;;;;;;18.17;7.53;;;;;;;;;;4878317;29;20176;-86
2022/02/27 01:35:29;;;;;;;19.00;7.70;;;;;;;;;;4878961;29;20060;-92
2022/02/27 01:37:54;;;;;;;19.58;7.95;;;;;;;;;;4882222;29;20036;-85
2022/02/27 01:40:20;;;;;;;17.15;7.22;;;;;;;;;;4881265;29;20511;-84
2022/02/27 01:42:45;;;;;;;15.18;6.95;;;;;;;;;;4884528;29;20069;-83
2022/02/27 01:45:11;;;;;;;20.02;7.72;;;;;;;;;;4885412;29;20048;-92
2022/02/27 01:47:36;;;;;;;12.25;7.30;;;;;;;;;;4887214;29;20028;-85
2022/02/27 01:50:03;;;;;;;16.50;7.15;;;;;;;;;;4880887;29;20028;-92
2022/02/27 01:52:30;;;;;;;19.73;6.80;;;;;;;;;;4878994;29;20036;-92
2022/02/27 01:54:56;;;;;;;14.85;6.45;;;;;;;;;;4880898;29;20037;-84
2022/02/27 01:57:22;;;;;;;20.92;7.75;;;;;;;;;;4883897;29;20029;-83
2022/02/27 01:59:47;;;;;;;13.73;7.55;;;;;;;;;;4882128;29;20546;-91
2022/02/27 02:02:12;;;;;;;18.92;7.72;;;;;;;;;;4883187;29;20115;-92
2022/02/27 02:04:40;;;;;;;16.38;6.85;;;;;;;;;;4879719;29;20066;-93
2022/02/27 02:07:05;;;;;;;14.93;7.18;;;;;;;;;;4879326;29;20080;-84
2022/02/27 02:09:30;;;;;;;14.50;6.47;;;;;;;;;;4878561;29;20632;-91
2022/02/27 02:11:56;;;;;;;18.85;6.85;;;;;;;;;;4879166;29;20075;-85
2022/02/27 02:14:21;;;;;;;16.00;6.75;;;;;;;;;;4885379;29;20056;-85
2022/02/27 02:16:50;;;;;;;17.70;6.93;;;;;;;;;;4875611;29;20033;-83
2022/02/27 02:19:18;;;;;;;15.93;6.90;;;;;;;;;;4880265;29;20033;-92
2022/02/27 02:21:46;;;;;;;17.80;6.63;;;;;;;;;;4877269;29;20413;-83
2022/02/27 02:24:12;;;;;;;16.38;6.75;;;;;;;;;;4875952;29;20043;-83
2022/02/27 02:26:39;;;;;;;15.15;7.25;;;;;;;;;;4880853;29;20084;-83
2022/02/27 02:29:09;;;;;;;19.30;7.60;;;;;;;;;;4884881;29;20029;-90
2022/02/27 02:31:35;;;;;;;18.33;6.32;;;;;;;;;;4879097;29;20565;-86
2022/02/27 02:34:08;;;;;;;15.77;6.43;;;;;;;;;;4884410;29;20127;-84
2022/02/27 02:36:34;;;;;;;19.02;6.85;;;;;;;;;;4882843;29;20049;-92
2022/02/27 02:39:02;;;;;;;15.88;6.40;;;;;;;;;;4882416;29;20079;-92
2022/02/27 02:41:27;;;;;;;14.43;6.60;;;;;;;;;;4882752;29;20382;-89
2022/02/27 02:43:53;;;;;;;12.10;5.75;;;;;;;;;;4882981;29;20064;-91
2022/02/27 02:46:18;;;;;;;11.30;6.05;;;;;;;;;;4887442;29;20090;-86
2022/02/27 02:48:44;;;;;;;16.27;6.55;;;;;;;;;;4884757;29;20649;-92
2022/02/27 02:51:09;;;;;;;15.60;6.63;;;;;;;;;;4887148;29;20116;-90
2022/02/27 02:53:36;;;;;;;23.33;6.68;;;;;;;;;;4883876;29;20037;-86
2022/02/27 02:56:05;;;;;;;16.75;6.65;;;;;;;;;;4879811;29;20032;-89
2022/02/27 02:58:34;;;;;;;15.07;6.47;;;;;;;;;;4883591;29;20522;-85
2022/02/27 03:01:00;;;;;;;13.38;6.00;;;;;;;;;;4882355;29;20041;-85
2022/02/27 03:03:26;;;;;;;15.25;6.10;;;;;;;;;;4883846;29;20032;-85
2022/02/27 03:05:52;;;;;;;14.95;6.47;;;;;;;;;;4883809;29;20020;-91
2022/02/27 03:08:17;;;;;;;15.07;6.55;;;;;;;;;;4881953;29;20042;-84
2022/02/27 03:10:42;;;;;;;15.18;6.50;;;;;;;;;;4884718;29;20049;-92
2022/02/27 03:13:08;;;;;;;16.48;6.38;;;;;;;;;;4881033;29;20024;-84
2022/02/27 03:15:33;;;;;;;18.60;6.25;;;;;;;;;;4878966;29;20120;-84
2022/02/27 03:17:58;;;;;;;18.90;6.78;;;;;;;;;;4880470;29;20512;-84
2022/02/27 03:20:24;;;;;;;15.65;6.20;;;;;;;;;;4878936;29;20043;-84
2022/02/27 03:22:49;;;;;;;15.55;6.10;;;;;;;;;;4888005;29;20512;-90
2022/02/27 03:25:14;;;;;;;18.42;6.70;;;;;;;;;;4884199;29;20033;-84
2022/02/27 03:27:40;;;;;;;13.30;6.20;;;;;;;;;;4884697;29;20044;-92
2022/02/27 03:30:06;;;;;;;13.65;6.07;;;;;;;;;;4882955;29;20032;-86
2022/02/27 03:32:31;;;;;;;14.48;6.25;;;;;;;;;;4881537;29;20029;-93
2022/02/27 03:34:57;;;;;;;14.75;5.88;;;;;;;;;;4882884;29;20461;-91
2022/02/27 03:37:22;;;;;;;14.65;6.38;;;;;;;;;;4881193;29;20029;-85
2022/02/27 03:39:48;;;;;;;13.98;6.45;;;;;;;;;;4883583;29;20033;-84
2022/02/27 03:42:13;;;;;;;18.83;6.95;;;;;;;;;;4879875;29;20037;-88
2022/02/27 03:44:38;;;;;;;13.63;6.47;;;;;;;;;;4883982;29;20025;-91
2022/02/27 03:47:04;;;;;;;15.32;6.10;;;;;;;;;;4884221;29;20032;-91
2022/02/27 03:49:29;;;;;;;15.38;6.43;;;;;;;;;;4879145;29;20029;-85
2022/02/27 03:51:55;;;;;;;17.02;6.55;;;;;;;;;;4888017;29;20043;-86
2022/02/27 03:54:21;;;;;;;18.85;6.97;;;;;;;;;;4886412;29;20482;-89
2022/02/27 03:56:47;;;;;;;18.08;6.85;;;;;;;;;;4875309;29;20025;-90
2022/02/27 03:59:12;;;;;;;15.48;6.00;;;;;;;;;;4885728;29;20036;-91
2022/02/27 04:01:38;;;;;;;18.20;6.90;;;;;;;;;;4885943;29;20067;-94
2022/02/27 04:04:03;;;;;;;13.50;5.95;;;;;;;;;;4884785;29;20068;-84
2022/02/27 04:06:29;;;;;;;19.38;6.60;;;;;;;;;;4881941;29;20029;-85
2022/02/27 04:08:54;;;;;;;13.20;6.43;;;;;;;;;;4889310;29;20029;-90
2022/02/27 04:11:20;;;;;;;17.35;6.07;;;;;;;;;;4885915;29;20398;-90
2022/02/27 04:13:46;;;;;;;17.05;6.65;;;;;;;;;;4889116;29;20037;-86
2022/02/27 04:16:11;;;;;;;13.57;5.88;;;;;;;;;;4882189;29;20044;-86
2022/02/27 04:18:37;;;;;;;13.15;6.60;;;;;;;;;;4887517;29;20025;-85
2022/02/27 04:21:03;;;;;;;14.43;5.90;;;;;;;;;;4887041;29;20076;-90
2022/02/27 04:23:29;;;;;;;14.05;6.38;;;;;;;;;;4893278;29;20025;-92
2022/02/27 04:25:54;;;;;;;14.80;6.32;;;;;;;;;;4883731;29;20029;-85
2022/02/27 04:28:20;;;;;;;15.55;6.10;;;;;;;;;;4880793;29;20467;-92
2022/02/27 04:30:45;;;;;;;14.73;6.38;;;;;;;;;;4888810;29;20062;-85
2022/02/27 04:33:10;;;;;;;14.65;6.32;;;;;;;;;;4881152;29;20029;-92
2022/02/27 04:35:36;;;;;;;11.57;5.40;;;;;;;;;;4890827;29;20131;-92
2022/02/27 04:38:01;;;;;;;15.35;6.38;;;;;;;;;;4882486;29;20089;-90
2022/02/27 04:40:27;;;;;;;14.48;6.10;;;;;;;;;;4881791;29;20071;-85
2022/02/27 04:42:52;;;;;;;19.38;6.97;;;;;;;;;;4883286;29;20699;-86
2022/02/27 04:45:18;;;;;;;16.85;6.40;;;;;;;;;;4885983;29;20063;-85
2022/02/27 04:47:43;;;;;;;14.05;6.15;;;;;;;;;;4887412;29;20054;-89
2022/02/27 04:50:09;;;;;;;14.00;6.25;;;;;;;;;;4885426;29;20068;-92
2022/02/27 04:52:35;;;;;;;12.80;6.15;;;;;;;;;;4878860;29;20419;-86
2022/02/27 04:55:01;;;;;;;14.98;5.80;;;;;;;;;;4896699;29;20029;-85
2022/02/27 04:57:27;;;;;;;11.32;6.07;;;;;;;;;;4882354;29;20024;-84
2022/02/27 04:59:52;;;;;;;14.35;6.28;;;;;;;;;;4881071;29;20033;-90
2022/02/27 05:02:17;;;;;;;11.82;5.38;;;;;;;;;;4886184;29;20033;-91
2022/02/27 05:04:43;;;;;;;17.98;6.50;;;;;;;;;;4888622;29;20028;-84
2022/02/27 05:07:08;;;;;;;17.27;6.57;;;;;;;;;;4883243;29;20157;-85
2022/02/27 05:09:34;;;;;;;17.60;6.40;;;;;;;;;;4884610;29;20111;-90
2022/02/27 05:11:59;;;;;;;15.48;6.75;;;;;;;;;;4890858;29;20032;-93
2022/02/27 05:14:25;;;;;;;10.50;5.47;;;;;;;;;;4888929;29;20533;-89
2022/02/27 05:16:50;;;;;;;16.35;5.82;;;;;;;;;;4881923;29;20040;-94
2022/02/27 05:19:15;;;;;;;13.55;5.90;;;;;;;;;;4881082;29;20029;-93
2022/02/27 05:21:41;;;;;;;13.98;5.93;;;;;;;;;;4890319;29;20068;-91
2022/02/27 05:24:07;;;;;;;13.90;5.75;;;;;;;;;;4887871;29;20139;-85
2022/02/27 05:26:33;;;;;;;10.15;5.65;;;;;;;;;;4875617;29;20029;-91
2022/02/27 05:28:58;;;;;;;11.93;5.95;;;;;;;;;;4888718;29;20482;-90
2022/02/27 05:31:24;;;;;;;11.07;6.25;;;;;;;;;;4879105;29;20025;-86
2022/02/27 05:33:50;;;;;;;14.30;5.78;;;;;;;;;;4889364;29;20029;-84
2022/02/27 05:36:16;;;;;;;15.27;6.22;;;;;;;;;;4887714;29;20060;-91
2022/02/27 05:38:41;;;;;;;12.18;6.13;;;;;;;;;;4872620;29;20036;-86
2022/02/27 05:41:07;;;;;;;14.05;6.47;;;;;;;;;;4880442;29;20029;-84
2022/02/27 05:43:33;;;;;;;13.63;5.80;;;;;;;;;;4877206;29;20073;-93
2022/02/27 05:45:58;;;;;;;10.38;5.65;;;;;;;;;;4889117;29;20128;-93
2022/02/27 05:48:24;;;;;;;13.85;5.82;;;;;;;;;;4876242;29;20032;-86
2022/02/27 05:50:49;;;;;;;14.95;6.03;;;;;;;;;;4883169;29;20025;-91
2022/02/27 05:53:15;;;;;;;16.23;6.63;;;;;;;;;;4879058;29;20036;-93
2022/02/27 05:55:40;;;;;;;12.75;5.75;;;;;;;;;;4874997;29;20211;-85
2022/02/27 05:58:05;;;;;;;12.93;6.55;;;;;;;;;;4876963;29;20030;-90
2022/02/27 06:00:31;;;;;;;15.43;6.30;;;;;;;;;;4879764;29;20406;-90
2022/02/27 06:02:56;;;;;;;13.88;5.80;;;;;;;;;;4885501;29;20037;-86
2022/02/27 06:05:21;;;;;;;15.20;5.65;;;;;;;;;;4882452;29;20044;-91
2022/02/27 06:07:47;;;;;;;15.38;5.95;;;;;;;;;;4887218;29;20052;-85
2022/02/27 06:10:12;;;;;;;11.82;5.70;;;;;;;;;;4879754;29;20039;-86
2022/02/27 06:12:44;;;;;;;16.85;7.05;;;;;;;;;;4883710;29;20076;-86
2022/02/27 06:15:10;;;;;;;15.25;5.78;;;;;;;;;;4879649;29;20502;-86
2022/02/27 06:17:35;;;;;;;14.48;5.47;;;;;;;;;;4881290;29;20039;-86
2022/02/27 06:20:01;;;;;;;12.38;5.32;;;;;;;;;;4875566;29;20029;-92
2022/02/27 06:22:26;;;;;;;12.15;5.75;;;;;;;;;;4876446;29;20036;-90
2022/02/27 06:24:51;;;;;;;14.10;4.78;;;;;;;;;;4877086;29;20436;-92
2022/02/27 06:27:17;;;;;;;13.98;5.43;;;;;;;;;;4883339;29;20115;-89
2022/02/27 06:29:42;;;;;;;15.55;5.68;;;;;;;;;;4878698;29;20069;-85
2022/02/27 06:32:07;;;;;;;10.38;5.03;;;;;;;;;;4876032;29;20040;-85
2022/02/27 06:34:33;;;;;;;20.02;5.95;;;;;;;;;;4884484;29;20079;-84
2022/02/27 06:36:58;;;;;;;9.75;5.20;;;;;;;;;;4869175;29;20049;-89
2022/02/27 06:39:23;;;;;;;10.98;5.35;;;;;;;;;;4876411;29;20085;-84
2022/02/27 06:41:49;;;;;;;14.23;5.88;;;;;;;;;;4876373;29;20047;-86
2022/02/27 06:44:14;;;;;;;10.50;4.93;;;;;;;;;;4878138;29;20454;-86
2022/02/27 06:46:39;;;;;;;12.20;4.95;;;;;;;;;;4883100;29;20031;-92
2022/02/27 06:49:05;;;;;;;13.98;4.95;;;;;;;;;;4873208;29;20041;-86
2022/02/27 06:51:30;;;;;;;8.93;4.78;;;;;;;;;;4888030;29;20025;-86
2022/02/27 06:53:55;;;;;;;12.48;4.82;;;;;;;;;;4881190;29;20096;-91
2022/02/27 06:56:21;;;;;;;11.13;4.55;;;;;;;;;;4879579;29;20029;-93
2022/02/27 06:58:46;;;;;;;11.95;4.30;;;;;;;;;;4871400;29;20035;-83
2022/02/27 07:01:11;;;;;;;10.18;4.47;;;;;;;;;;4875128;29;20043;-93
2022/02/27 07:03:37;;;;;;;14.27;5.25;;;;;;;;;;4892611;29;20470;-85
2022/02/27 07:06:02;;;;;;;9.88;4.57;;;;;;;;;;4877490;29;20025;-91
2022/02/27 07:08:28;;;;;;;12.20;4.63;;;;;;;;;;4869207;29;20379;-94
2022/02/27 07:10:54;;;;;;;14.10;4.85;;;;;;;;;;4871246;29;20036;-91
2022/02/27 07:13:19;;;;;;;13.73;4.65;;;;;;;;;;4875954;29;20375;-84
2022/02/27 07:15:45;;;;;;;11.55;4.80;;;;;;;;;;4888957;29;20039;-92
2022/02/27 07:18:11;;;;;;;14.20;4.93;;;;;;;;;;4878010;29;20033;-93
2022/02/27 07:20:36;;;;;;;11.82;4.40;;;;;;;;;;4887107;29;20470;-85
2022/02/27 07:23:02;;;;;;;15.75;5.28;;;;;;;;;;4892084;29;20029;-86
2022/02/27 07:25:27;;;;;;;10.10;4.22;;;;;;;;;;4883676;29;20028;-90
2022/02/27 07:27:55;;;;;;;14.82;4.88;;;;;;;;;;4876554;29;20021;-86
2022/02/27 07:30:21;;;;;;;12.82;4.53;;;;;;;;;;4880362;29;20493;-85
2022/02/27 07:32:46;;;;;;;8.45;4.20;;;;;;;;;;4871454;29;20025;-84
2022/02/27 07:35:12;;;;;;;13.38;4.88;;;;;;;;;;4877126;29;20071;-91
2022/02/27 07:37:37;;;;;;;11.40;4.70;;;;;;;;;;4879332;29;20036;-93
2022/02/27 07:40:05;;;;;;;13.48;4.75;;;;;;;;;;4879606;29;20033;-93
2022/02/27 07:42:31;;;;;;;14.07;4.25;;;;;;;;;;4884213;29;20081;-91
2022/02/27 07:44:56;;;;;;;10.25;4.55;;;;;;;;;;4885045;29;20045;-90
2022/02/27 07:47:25;;;;;;;10.70;4.55;;;;;;;;;;4880834;29;20037;-87
2022/02/27 07:49:50;;;;;;;11.93;4.38;;;;;;;;;;4884024;29;21295;-85
2022/02/27 07:52:16;;;;;;;14.75;4.65;;;;;;;;;;4882403;29;20037;-93
2022/02/27 07:54:41;;;;;;;11.98;4.50;;;;;;;;;;4877040;29;20490;-90
2022/02/27 07:57:06;;;;;;;12.15;4.30;;;;;;;;;;4881865;29;20359;-85
2022/02/27 07:59:32;;;;;;;15.10;4.95;;;;;;;;;;4893616;29;20070;-85
2022/02/27 08:01:57;;;;;;;10.70;4.07;;;;;;;;;;4885730;29;20470;-86
2022/02/27 08:04:23;;;;;;;12.55;4.63;;;;;;;;;;4889870;29;20032;-86
2022/02/27 08:06:48;;;;;;;15.32;4.57;;;;;;;;;;4880318;29;20096;-86
2022/02/27 08:09:13;;;;;;;13.65;4.65;;;;;;;;;;4874558;29;20059;-91
2022/02/27 08:11:39;;;;;;;9.20;4.63;;;;;;;;;;4884748;29;20788;-91
2022/02/27 08:14:04;;;;;;;9.77;4.18;;;;;;;;;;4887346;29;20029;-86
2022/02/27 08:16:30;;;;;;;10.43;4.03;;;;;;;;;;4886529;29;20016;-84
2022/02/27 08:18:55;;;;;;;8.25;3.40;;;;;;;;;;4892999;29;20032;-93
2022/02/27 08:21:21;;;;;;;11.25;4.00;;;;;;;;;;4895484;29;20038;-92
2022/02/27 08:23:46;;;;;;;11.10;4.15;;;;;;;;;;4886521;29;20029;-86
2022/02/27 08:26:11;;;;;;;10.40;4.13;;;;;;;;;;4886603;29;20478;-86
2022/02/27 08:28:37;;;;;;;10.43;3.83;;;;;;;;;;4897957;29;20141;-93
2022/02/27 08:31:02;;;;;;;7.82;3.53;;;;;;;;;;4892473;29;20036;-87
2022/02/27 08:33:28;;;;;;;9.23;4.00;;;;;;;;;;4877453;29;20732;-92
2022/02/27 08:35:55;;;;;;;8.13;4.22;;;;;;;;;;4883219;29;20383;-93
2022/02/27 08:38:21;;;;;;;10.52;3.70;;;;;;;;;;4894094;29;20434;-85
2022/02/27 08:40:47;;;;;;;9.30;3.33;;;;;;;;;;4892609;29;20052;-85
2022/02/27 08:43:12;;;;;;;11.43;3.92;;;;;;;;;;4889614;29;20080;-94
2022/02/27 08:45:38;;;;;;;10.20;3.63;;;;;;;;;;4880585;29;20033;-90
2022/02/27 08:48:03;;;;;;;9.88;3.70;;;;;;;;;;4879955;29;20068;-89
2022/02/27 08:50:29;;;;;;;10.23;3.38;;;;;;;;;;4886841;29;20125;-91
2022/02/27 08:52:54;;;;;;;11.27;3.83;;;;;;;;;;4881115;29;20037;-93
2022/02/27 08:55:20;;;;;;;12.50;4.65;;;;;;;;;;4885090;29;20056;-85
2022/02/27 08:57:46;;;;;;;10.90;3.80;;;;;;;;;;4883808;29;20052;-89
2022/02/27 09:00:14;;;;;;;10.85;4.00;;;;;;;;;;4894652;29;20029;-92
2022/02/27 09:02:40;;;;;;;9.52;3.70;;;;;;;;;;4877846;29;20028;-85
2022/02/27 09:05:06;;;;;;;10.57;4.13;;;;;;;;;;4876859;29;20123;-86
2022/02/27 09:07:32;;;;;;;9.00;3.83;;;;;;;;;;4890105;29;20383;-90
2022/02/27 09:09:58;;;;;;;11.05;3.80;;;;;;;;;;4880916;29;20033;-85
2022/02/27 09:12:23;;;;;;;9.07;4.32;;;;;;;;;;4885561;29;20032;-84
2022/02/27 09:14:49;;;;;;;9.60;4.05;;;;;;;;;;4893052;29;20020;-83
2022/02/27 09:17:14;;;;;;;7.82;3.85;;;;;;;;;;4883540;29;20035;-90
2022/02/27 09:19:40;;;;;;;9.80;3.75;;;;;;;;;;4885210;29;20024;-92
2022/02/27 09:22:05;;;;;;;8.80;3.88;;;;;;;;;;4882233;29;20562;-92
2022/02/27 09:24:31;;;;;;;9.73;3.88;;;;;;;;;;4879696;29;20391;-85
2022/02/27 09:26:56;;;;;;;9.93;3.92;;;;;;;;;;4878525;29;20033;-85
2022/02/27 09:29:22;;;;;;;11.15;4.22;;;;;;;;;;4892147;29;20056;-88
2022/02/27 09:31:48;;;;;;;10.55;3.70;;;;;;;;;;4888940;29;20032;-85
2022/02/27 09:34:13;;;;;;;10.13;3.72;;;;;;;;;;4884898;29;20040;-85
2022/02/27 09:36:38;;;;;;;12.63;4.10;;;;;;;;;;4879284;29;20067;-90
2022/02/27 09:39:05;;;;;;;9.50;3.83;;;;;;;;;;4879222;29;20040;-83
2022/02/27 09:41:30;;;;;;;9.85;3.85;;;;;;;;;;4884307;29;20033;-93
2022/02/27 09:43:59;;;;;;;9.32;4.15;;;;;;;;;;4876578;29;20034;-83
2022/02/27 09:46:26;;;;;;;8.48;3.65;;;;;;;;;;4882382;29;20029;-84
2022/02/27 09:48:51;;;;;;;9.75;4.13;;;;;;;;;;4882666;29;20036;-89
2022/02/27 09:51:17;;;;;;;9.45;3.80;;;;;;;;;;4885400;29;20021;-93
2022/02/27 09:53:42;;;;;;;10.85;3.85;;;;;;;;;;4887353;29;20434;-89
2022/02/27 09:56:08;;;;;;;9.63;4.10;;;;;;;;;;4878588;29;20036;-83
2022/02/27 09:58:33;;;;;;;9.32;4.00;;;;;;;;;;4890469;29;20029;-92
2022/02/27 10:00:59;;;;;;;11.50;4.15;;;;;;;;;;4890230;29;20063;-89
2022/02/27 10:03:26;;;;;;;9.95;4.20;;;;;;;;;;4879252;29;20139;-89
2022/02/27 10:06:02;;;;;;;10.45;4.13;;;;;;;;;;4878335;29;20028;-93
2022/02/27 10:08:53;;;;;;;9.32;3.72;;;;;;;;;;4889639;29;20016;-85
2022/02/27 10:11:19;;;;;;;8.75;3.60;;;;;;;;;;4894091;29;20486;-85
2022/02/27 10:13:51;;;;;;;9.02;3.60;;;;;;;;;;4887585;29;20049;-90
2022/02/27 10:16:27;;;;;;;10.23;3.70;;;;;;;;;;4880238;29;20089;-90
2022/02/27 10:18:59;;;;;;;9.57;4.53;;;;;;;;;;4884040;29;20066;-85
2022/02/27 10:21:37;;;;;;;6.72;3.60;;;;;;;;;;4878769;29;20033;-92
2022/02/27 10:24:09;;;;;;;8.55;3.67;;;;;;;;;;4881935;29;20107;-85
2022/02/27 10:26:38;;;;;;;10.10;3.83;;;;;;;;;;4882710;29;20039;-92
2022/02/27 10:29:16;;;;;;;8.77;3.50;;;;;;;;;;4879483;29;20032;-84
2022/02/27 10:31:47;;;;;;;11.63;3.47;;;;;;;;;;4879855;29;20080;-89
2022/02/27 10:34:33;;;;;;;6.93;3.50;;;;;;;;;;4881212;29;20142;-87
2022/02/27 10:37:04;;;;;;;8.68;3.40;;;;;;;;;;4877548;29;20060;-90
2022/02/27 10:39:31;;;;;;;8.98;3.33;;;;;;;;;;4878267;29;20712;-84
2022/02/27 10:42:21;;;;;;;8.48;3.60;;;;;;;;;;4878309;29;20575;-83
2022/02/27 10:45:00;;;;;;;9.05;3.90;;;;;;;;;;4888269;29;20032;-90
2022/02/27 10:47:35;;;;;;;8.93;3.45;;;;;;;;;;4874377;29;20029;-85
2022/02/27 10:50:07;;;;;;;10.35;3.38;;;;;;;;;;4889842;29;20052;-90
2022/02/27 10:52:33;;;;;;;5.68;3.17;;;;;;;;;;4883782;29;20029;-85
2022/02/27 10:55:05;;;;;;;10.35;3.85;;;;;;;;;;4874458;29;20064;-91
2022/02/27 10:57:30;;;;;;;5.88;3.33;;;;;;;;;;4883428;29;20037;-92
2022/02/27 11:00:00;;;;;;;7.07;3.92;;;;;;;;;;4878808;29;20052;-90
2022/02/27 11:02:28;;;;;;;8.18;3.92;;;;;;;;;;4902072;29;20490;-86
2022/02/27 11:04:54;;;;;;;9.23;3.47;;;;;;;;;;4885838;29;20443;-86
2022/02/27 11:07:19;;;;;;;6.82;3.40;;;;;;;;;;4887456;29;20084;-83
2022/02/27 11:09:45;;;;;;;7.70;3.60;;;;;;;;;;4872892;29;20059;-88
2022/02/27 11:12:14;;;;;;;7.35;3.55;;;;;;;;;;4887357;29;20031;-90
2022/02/27 11:14:40;;;;;;;7.68;3.50;;;;;;;;;;4882763;29;20029;-84
2022/02/27 11:17:06;;;;;;;8.95;3.50;;;;;;;;;;4884404;29;20030;-89
2022/02/27 11:19:32;;;;;;;8.10;3.60;;;;;;;;;;4881381;29;20029;-84
2022/02/27 11:21:59;;;;;;;8.07;2.90;;;;;;;;;;4883043;29;20037;-84
2022/02/27 11:24:25;;;;;;;7.20;3.20;;;;;;;;;;4882618;29;20033;-89
2022/02/27 11:26:51;;;;;;;7.40;3.38;;;;;;;;;;4885652;29;20020;-87
2022/02/27 11:29:16;;;;;;;7.68;3.55;;;;;;;;;;4885986;29;20557;-85
2022/02/27 11:31:43;;;;;;;8.05;3.47;;;;;;;;;;4882651;29;20451;-86
2022/02/27 11:34:17;;;;;;;6.95;3.00;;;;;;;;;;4879713;29;20115;-87
2022/02/27 11:36:45;;;;;;;7.65;3.13;;;;;;;;;;4881196;29;20048;-85
2022/02/27 11:40:27;;;;;;;7.60;3.30;;;;;;;;;;4875012;29;20062;-89
2022/02/27 11:41:57;;;;;;;9.20;3.53;;;;;;;;;;4885217;29;20033;-84
2022/02/27 11:44:34;;;;;;;7.50;3.10;;;;;;;;;;4882594;29;20024;-86
2022/02/27 11:47:11;;;;;;;6.68;3.30;;;;;;;;;;4881739;29;20032;-88
2022/02/27 11:49:40;;;;;;;7.43;3.42;;;;;;;;;;4891416;29;20060;-89
2022/02/27 11:52:10;;;;;;;5.60;3.20;;;;;;;;;;4882883;29;20039;-83
2022/02/27 11:54:39;;;;;;;6.97;3.38;;;;;;;;;;4886671;29;20051;-89
2022/02/27 11:57:09;;;;;;;5.47;3.20;;;;;;;;;;4882084;29;20029;-88
2022/02/27 11:59:57;;;;;;;6.53;3.20;;;;;;;;;;4888362;29;20025;-87
2022/02/27 12:02:40;;;;;;;7.68;3.35;;;;;;;;;;4877305;29;20116;-84
2022/02/27 12:05:09;;;;;;;7.68;3.53;;;;;;;;;;4895697;29;20120;-89
2022/02/27 12:07:57;;;;;;;6.05;3.10;;;;;;;;;;4879424;29;20029;-87
2022/02/27 12:10:39;;;;;;;6.15;3.50;;;;;;;;;;4874790;29;20064;-89
2022/02/27 12:13:19;;;;;;;6.90;3.42;;;;;;;;;;4895685;29;20726;-90
2022/02/27 12:15:45;;;;;;;7.65;3.15;;;;;;;;;;4870522;29;20029;-83
2022/02/27 12:18:16;;;;;;;6.47;3.20;;;;;;;;;;4885020;29;20128;-84
2022/02/27 12:20:42;;;;;;;8.07;3.72;;;;;;;;;;4888117;29;20032;-89
2022/02/27 12:23:35;;;;;;;8.13;3.60;;;;;;;;;;4880168;29;20385;-84
2022/02/27 12:26:08;;;;;;;6.22;3.47;;;;;;;;;;4882575;29;20040;-87
2022/02/27 12:28:52;;;;;;;12.45;3.60;;;;;;;;;;4876481;29;20016;-84
2022/02/27 12:31:20;;;;;;;6.03;3.65;;;;;;;;;;4881006;29;20119;-88
2022/02/27 12:33:46;;;;;;;10.20;3.40;;;;;;;;;;4873086;29;20122;-90
2022/02/27 12:36:19;;;;;;;6.10;3.25;;;;;;;;;;4885222;29;20060;-88
2022/02/27 12:38:48;;;;;;;7.65;3.42;;;;;;;;;;4886173;29;20040;-87
2022/02/27 12:41:17;;;;;;;7.38;3.55;;;;;;;;;;4883617;29;20033;-87
2022/02/27 12:43:43;;;;;;;7.25;4.38;;;;;;;;;;4879844;29;20439;-88
2022/02/27 12:46:08;;;;;;;6.95;3.65;;;;;;;;;;4891897;29;20032;-85
2022/02/27 12:51:20;;;;;;;8.98;3.65;;;;;;;;;;4883358;29;20043;-84
2022/02/27 12:53:45;;;;;;;7.00;3.90;;;;;;;;;;4885816;29;20029;-86
2022/02/27 12:56:10;;;;;;;8.20;3.70;;;;;;;;;;4886987;29;20115;-88
2022/02/27 12:58:41;;;;;;;9.73;3.45;;;;;;;;;;4881515;29;20029;-87
2022/02/27 13:01:07;;;;;;;7.10;3.58;;;;;;;;;;4884508;29;20387;-84
2022/02/27 13:03:34;;;;;;;5.85;3.25;;;;;;;;;;4876634;29;20028;-88
2022/02/27 13:06:02;;;;;;;8.30;3.10;;;;;;;;;;4882435;29;20043;-87
2022/02/27 13:08:27;;;;;;;6.90;3.92;;;;;;;;;;4883828;29;20119;-90
2022/02/27 13:10:53;;;;;;;7.72;3.40;;;;;;;;;;4871384;29;20173;-84
2022/02/27 13:13:18;;;;;;;6.25;3.40;;;;;;;;;;4881822;29;20057;-87
2022/02/27 13:15:51;;;;;;;9.07;3.78;;;;;;;;;;4885151;29;20033;-84
2022/02/27 13:18:18;;;;;;;5.50;3.17;;;;;;;;;;4880377;29;20469;-89
2022/02/27 13:20:45;;;;;;;7.43;3.40;;;;;;;;;;4890362;29;20497;-90
2022/02/27 13:23:11;;;;;;;9.93;3.40;;;;;;;;;;4880766;29;20447;-87
2022/02/27 13:25:36;;;;;;;7.07;3.35;;;;;;;;;;4893510;29;20061;-90
2022/02/27 13:28:01;;;;;;;7.22;3.63;;;;;;;;;;4886819;29;20470;-90
2022/02/27 13:30:27;;;;;;;5.93;3.20;;;;;;;;;;4881910;29;20076;-87
2022/02/27 13:32:58;;;;;;;6.35;3.70;;;;;;;;;;4886598;29;20029;-87
2022/02/27 13:35:37;;;;;;;7.50;3.20;;;;;;;;;;4888236;29;20391;-85
2022/02/27 13:38:09;;;;;;;5.68;3.17;;;;;;;;;;4902629;29;20032;-88
2022/02/27 13:40:40;;;;;;;6.80;3.10;;;;;;;;;;4889824;29;20031;-87
2022/02/27 13:43:14;;;;;;;6.50;3.05;;;;;;;;;;4879675;29;20025;-87
2022/02/27 13:45:45;;;;;;;8.05;3.22;;;;;;;;;;4883021;29;20393;-89
2022/02/27 13:48:13;;;;;;;5.65;3.10;;;;;;;;;;4883731;29;20025;-85
2022/02/27 13:50:48;;;;;;;6.70;2.70;;;;;;;;;;4891863;29;20407;-88
2022/02/27 13:53:15;;;;;;;6.40;3.00;;;;;;;;;;4889336;29;20477;-88
2022/02/27 13:55:43;;;;;;;5.55;3.10;;;;;;;;;;4887743;29;20033;-87
2022/02/27 13:58:12;;;;;;;6.93;3.10;;;;;;;;;;4879303;29;20029;-88
2022/02/27 14:00:50;;;;;;;5.28;2.72;;;;;;;;;;4879820;29;20032;-87
2022/02/27 14:03:16;;;;;;;6.05;2.70;;;;;;;;;;4887584;29;20055;-87
2022/02/27 14:05:59;;;;;;;6.13;3.00;;;;;;;;;;4875679;29;20034;-88
2022/02/27 14:08:30;;;;;;;7.30;2.95;;;;;;;;;;4881946;29;20029;-87
2022/02/27 14:11:07;;;;;;;6.20;2.67;;;;;;;;;;4878792;29;20028;-88
2022/02/27 14:13:33;;;;;;;6.45;3.20;;;;;;;;;;4891036;29;20036;-89
2022/02/27 14:16:03;;;;;;;5.28;3.00;;;;;;;;;;4879942;29;20406;-89
2022/02/27 14:18:35;;;;;;;6.30;3.00;;;;;;;;;;4878743;29;20494;-87
2022/02/27 14:21:19;;;;;;;5.45;2.95;;;;;;;;;;4882575;29;20113;-88
2022/02/27 14:23:58;;;;;;;4.97;2.90;;;;;;;;;;4903968;29;20052;-88
2022/02/27 14:26:38;;;;;;;7.25;3.00;;;;;;;;;;4884684;29;20026;-88
2022/02/27 14:29:13;;;;;;;6.72;3.00;;;;;;;;;;4885472;29;20049;-84
2022/02/27 14:31:44;;;;;;;7.30;3.00;;;;;;;;;;4886146;29;20073;-88
2022/02/27 14:34:12;;;;;;;5.50;2.80;;;;;;;;;;4870632;29;20085;-89
2022/02/27 14:36:39;;;;;;;8.02;2.97;;;;;;;;;;4889495;29;20052;-88
2022/02/27 14:39:07;;;;;;;6.03;2.70;;;;;;;;;;4884843;29;20041;-89